Time,TemperatureF,DewpointF,PressureIn,WindDirection,WindDirectionDegrees,WindSpeedMPH,WindSpeedGustMPH,Humidity,HourlyPrecipIn,Conditions,Clouds,dailyrainin,SoftwareType,DateUTC
2013-01-12 00:03:00,66.0,62.0,30.11,NNE,29,0.0,1.0,88,0.00,,,0.00,,2013-01-12 05:03:00,
2013-01-12 00:12:00,66.0,62.0,30.11,NNE,29,0.0,1.0,88,0.00,,,0.00,,2013-01-12 05:12:00,
2013-01-12 00:22:00,66.0,63.0,30.11,NNE,17,0.0,0.0,89,0.00,,,0.00,,2013-01-12 05:22:00,
2013-01-12 00:32:00,66.0,63.0,30.10,NNE,29,0.0,0.0,89,0.00,,,0.00,,2013-01-12 05:32:00,
2013-01-12 00:42:00,66.0,63.0,30.10,NNE,29,0.0,0.0,89,0.00,,,0.00,,2013-01-12 05:42:00,
2013-01-12 00:53:00,65.0,62.0,30.10,NNE,29,0.0,0.0,89,0.00,,,0.00,,2013-01-12 05:53:00,
2013-01-12 01:02:00,65.0,62.0,30.10,East,91,0.0,1.0,89,0.00,,,0.00,,2013-01-12 06:02:00,
2013-01-12 01:12:00,65.0,62.0,30.10,East,91,0.0,1.0,89,0.00,,,0.00,,2013-01-12 06:12:00,
2013-01-12 01:22:00,64.0,61.0,30.09,East,91,0.0,0.0,89,0.00,,,0.00,,2013-01-12 06:22:00,
2013-01-12 01:33:00,64.0,61.0,30.09,East,91,0.0,0.0,89,0.00,,,0.00,,2013-01-12 06:33:00,
2013-01-12 01:43:00,64.0,61.0,30.09,East,91,0.0,0.0,89,0.00,,,0.00,,2013-01-12 06:43:00,
2013-01-12 01:53:00,64.0,61.0,30.09,East,91,0.0,0.0,89,0.00,,,0.00,,2013-01-12 06:53:00,
2013-01-12 02:02:00,63.0,60.0,30.09,East,91,0.0,0.0,89,0.00,,,0.00,,2013-01-12 07:02:00,
2013-01-12 02:12:00,63.0,60.0,30.09,East,91,0.0,0.0,89,0.00,,,0.00,,2013-01-12 07:12:00,
2013-01-12 02:22:00,63.0,60.0,30.08,East,91,0.0,0.0,89,0.00,,,0.00,,2013-01-12 07:22:00,
2013-01-12 02:32:00,63.0,60.0,30.08,East,91,0.0,0.0,90,0.00,,,0.00,,2013-01-12 07:32:00,
2013-01-12 02:42:00,63.0,60.0,30.08,East,91,0.0,0.0,90,0.00,,,0.00,,2013-01-12 07:42:00,
2013-01-12 02:53:00,63.0,60.0,30.08,East,91,0.0,0.0,90,0.00,,,0.00,,2013-01-12 07:53:00,
2013-01-12 03:02:00,62.0,59.0,30.08,East,91,0.0,0.0,90,0.00,,,0.00,,2013-01-12 08:02:00,
2013-01-12 03:12:00,62.0,59.0,30.08,East,91,0.0,0.0,90,0.00,,,0.00,,2013-01-12 08:12:00,
2013-01-12 03:22:00,62.0,59.0,30.08,East,94,0.0,1.0,90,0.00,,,0.00,,2013-01-12 08:22:00,
2013-01-12 03:32:00,63.0,60.0,30.07,East,94,0.0,1.0,91,0.00,,,0.00,,2013-01-12 08:32:00,
2013-01-12 03:42:00,63.0,60.0,30.07,East,94,0.0,1.0,91,0.00,,,0.00,,2013-01-12 08:42:00,
2013-01-12 03:53:00,63.0,60.0,30.07,East,94,0.0,0.0,91,0.00,,,0.00,,2013-01-12 08:53:00,
2013-01-12 04:02:00,63.0,60.0,30.07,East,100,0.0,1.0,91,0.00,,,0.00,,2013-01-12 09:02:00,
2013-01-12 04:12:00,63.0,60.0,30.07,East,100,0.0,1.0,91,0.00,,,0.00,,2013-01-12 09:12:00,
2013-01-12 04:22:00,63.0,61.0,30.06,East,88,0.0,0.0,92,0.00,,,0.00,,2013-01-12 09:22:00,
2013-01-12 04:32:00,63.0,61.0,30.06,East,90,0.0,1.0,92,0.00,,,0.00,,2013-01-12 09:32:00,
2013-01-12 04:42:00,63.0,61.0,30.06,East,90,0.0,1.0,92,0.00,,,0.00,,2013-01-12 09:42:00,
2013-01-12 04:53:00,63.0,61.0,30.06,ESE,115,0.0,0.0,92,0.00,,,0.00,,2013-01-12 09:53:00,
2013-01-12 05:02:00,63.0,61.0,30.06,ESE,115,0.0,0.0,92,0.00,,,0.00,,2013-01-12 10:02:00,
2013-01-12 05:12:00,63.0,61.0,30.06,ESE,115,0.0,0.0,92,0.00,,,0.00,,2013-01-12 10:12:00,
2013-01-12 05:22:00,62.0,60.0,30.06,East,87,0.0,0.0,92,0.00,,,0.00,,2013-01-12 10:22:00,
2013-01-12 05:32:00,62.0,60.0,30.06,East,88,0.0,1.0,92,0.00,,,0.01,,2013-01-12 10:32:00,
2013-01-12 05:42:00,62.0,60.0,30.06,East,88,0.0,1.0,92,0.00,,,0.01,,2013-01-12 10:42:00,
2013-01-12 05:52:00,62.0,60.0,30.06,ENE,76,0.0,0.0,92,0.00,,,0.01,,2013-01-12 10:52:00,
2013-01-12 06:02:00,62.0,60.0,30.06,ENE,76,0.0,0.0,92,0.00,,,0.01,,2013-01-12 11:02:00,
2013-01-12 06:12:00,62.0,60.0,30.06,ENE,76,0.0,0.0,92,0.00,,,0.01,,2013-01-12 11:12:00,
2013-01-12 06:22:00,62.0,60.0,30.06,ENE,76,0.0,0.0,92,0.00,,,0.01,,2013-01-12 11:22:00,
2013-01-12 06:33:00,62.0,60.0,30.06,ENE,76,0.0,0.0,92,0.00,,,0.01,,2013-01-12 11:33:00,
2013-01-12 06:42:00,62.0,60.0,30.06,ENE,76,0.0,0.0,92,0.00,,,0.01,,2013-01-12 11:42:00,
2013-01-12 06:53:00,62.0,60.0,30.07,ENE,76,0.0,0.0,92,0.00,,,0.01,,2013-01-12 11:53:00,
2013-01-12 07:03:00,62.0,60.0,30.07,ESE,118,0.0,0.0,93,0.00,,,0.01,,2013-01-12 12:03:00,
2013-01-12 07:12:00,62.0,60.0,30.07,ESE,118,0.0,0.0,93,0.00,,,0.01,,2013-01-12 12:12:00,
2013-01-12 07:22:00,62.0,60.0,30.07,East,90,0.0,1.0,93,0.00,,,0.01,,2013-01-12 12:22:00,
2013-01-12 07:32:00,62.0,60.0,30.07,ESE,115,0.0,1.0,93,0.00,,,0.01,,2013-01-12 12:32:00,
2013-01-12 07:43:00,62.0,60.0,30.07,ESE,115,0.0,1.0,93,0.00,,,0.01,,2013-01-12 12:43:00,
2013-01-12 07:53:00,63.0,61.0,30.08,East,96,0.0,1.0,93,0.00,,,0.01,,2013-01-12 12:53:00,
2013-01-12 08:02:00,63.0,61.0,30.08,East,99,3.0,5.0,94,0.00,,,0.01,,2013-01-12 13:02:00,
2013-01-12 08:12:00,63.0,61.0,30.08,East,99,3.0,5.0,94,0.00,,,0.01,,2013-01-12 13:12:00,
2013-01-12 08:23:00,64.0,62.0,30.08,East,86,3.0,5.0,94,0.00,,,0.01,,2013-01-12 13:23:00,
2013-01-12 08:33:00,64.0,62.0,30.09,East,96,3.0,6.0,94,0.00,,,0.01,,2013-01-12 13:33:00,
2013-01-12 08:43:00,64.0,62.0,30.09,East,96,3.0,6.0,94,0.00,,,0.01,,2013-01-12 13:43:00,
2013-01-12 08:53:00,66.0,65.0,30.09,East,98,3.0,5.0,95,0.00,,,0.01,,2013-01-12 13:53:00,
2013-01-12 09:02:00,67.0,65.0,30.09,East,98,3.0,7.0,94,0.00,,,0.01,,2013-01-12 14:02:00,
2013-01-12 09:12:00,67.0,65.0,30.09,East,98,3.0,7.0,94,0.00,,,0.01,,2013-01-12 14:12:00,
2013-01-12 09:22:00,68.0,65.0,30.09,East,101,4.0,7.0,91,0.00,,,0.01,,2013-01-12 14:22:00,
2013-01-12 09:33:00,71.0,66.0,30.09,ESE,109,3.0,6.0,84,0.00,,,0.01,,2013-01-12 14:33:00,
2013-01-12 09:43:00,71.0,66.0,30.09,ESE,109,3.0,6.0,84,0.00,,,0.01,,2013-01-12 14:43:00,
2013-01-12 09:53:00,72.0,65.0,30.10,SSE,150,2.0,8.0,79,0.00,,,0.01,,2013-01-12 14:53:00,
2013-01-12 10:03:00,74.0,66.0,30.10,South,171,5.0,6.0,77,0.00,,,0.01,,2013-01-12 15:03:00,
2013-01-12 10:13:00,74.0,66.0,30.10,South,171,5.0,6.0,77,0.00,,,0.01,,2013-01-12 15:13:00,
2013-01-12 10:23:00,75.0,66.0,30.09,ESE,111,6.0,9.0,74,0.00,,,0.01,,2013-01-12 15:23:00,
2013-01-12 10:33:00,77.0,67.0,30.09,ENE,74,6.0,9.0,71,0.00,,,0.01,,2013-01-12 15:33:00,
2013-01-12 10:43:00,77.0,67.0,30.09,ENE,74,6.0,9.0,71,0.00,,,0.01,,2013-01-12 15:43:00,
2013-01-12 10:53:00,77.0,66.0,30.09,East,86,4.0,7.0,70,0.00,,,0.01,,2013-01-12 15:53:00,
2013-01-12 11:03:00,78.0,66.0,30.09,SSE,161,5.0,7.0,67,0.00,,,0.01,,2013-01-12 16:03:00,
2013-01-12 11:12:00,78.0,66.0,30.09,SSE,161,5.0,7.0,67,0.00,,,0.01,,2013-01-12 16:12:00,
2013-01-12 11:23:00,79.0,67.0,30.08,ESE,105,5.0,8.0,66,0.00,,,0.01,,2013-01-12 16:23:00,
2013-01-12 11:33:00,80.0,66.0,30.07,SSW,195,5.0,7.0,63,0.00,,,0.01,,2013-01-12 16:33:00,
2013-01-12 11:43:00,80.0,66.0,30.07,SSW,195,5.0,7.0,63,0.00,,,0.01,,2013-01-12 16:43:00,
2013-01-12 11:53:00,79.0,66.0,30.06,ESE,104,6.0,9.0,64,0.00,,,0.01,,2013-01-12 16:53:00,
2013-01-12 12:02:00,80.0,66.0,30.06,ESE,117,2.0,7.0,63,0.00,,,0.01,,2013-01-12 17:02:00,
2013-01-12 12:12:00,80.0,66.0,30.06,ESE,117,2.0,7.0,63,0.00,,,0.01,,2013-01-12 17:12:00,
2013-01-12 12:23:00,81.0,66.0,30.04,East,100,8.0,15.0,61,0.00,,,0.01,,2013-01-12 17:23:00,
2013-01-12 12:33:00,80.0,66.0,30.04,SSE,166,5.0,8.0,62,0.00,,,0.01,,2013-01-12 17:33:00,
2013-01-12 12:43:00,80.0,66.0,30.04,SSE,166,5.0,8.0,62,0.00,,,0.01,,2013-01-12 17:43:00,
2013-01-12 12:53:00,80.0,65.0,30.03,East,93,10.0,13.0,61,0.00,,,0.01,,2013-01-12 17:53:00,
2013-01-12 13:03:00,79.0,64.0,30.02,SSE,148,4.0,7.0,60,0.00,,,0.01,,2013-01-12 18:03:00,
2013-01-12 13:12:00,79.0,64.0,30.02,SSE,148,4.0,7.0,60,0.00,,,0.01,,2013-01-12 18:12:00,
2013-01-12 13:23:00,80.0,65.0,30.01,East,87,6.0,10.0,60,0.00,,,0.01,,2013-01-12 18:23:00,
2013-01-12 13:33:00,81.0,64.0,30.01,SSE,168,6.0,9.0,56,0.00,,,0.01,,2013-01-12 18:33:00,
2013-01-12 13:43:00,81.0,64.0,30.01,SSE,168,6.0,9.0,56,0.00,,,0.01,,2013-01-12 18:43:00,
2013-01-12 13:53:00,82.0,65.0,30.01,East,101,6.0,10.0,56,0.00,,,0.01,,2013-01-12 18:53:00,
2013-01-12 14:03:00,82.0,65.0,30.01,ESE,120,3.0,7.0,56,0.00,,,0.01,,2013-01-12 19:03:00,
2013-01-12 14:12:00,82.0,65.0,30.01,ESE,120,3.0,7.0,56,0.00,,,0.01,,2013-01-12 19:12:00,
2013-01-12 14:23:00,84.0,66.0,30.01,ESE,111,4.0,6.0,55,0.00,,,0.01,,2013-01-12 19:23:00,
2013-01-12 14:33:00,82.0,65.0,30.00,ENE,77,2.0,3.0,56,0.00,,,0.01,,2013-01-12 19:33:00,
2013-01-12 14:43:00,82.0,65.0,30.00,ENE,77,2.0,3.0,56,0.00,,,0.01,,2013-01-12 19:43:00,
2013-01-12 14:53:00,81.0,65.0,30.00,East,79,6.0,9.0,58,0.00,,,0.01,,2013-01-12 19:53:00,
2013-01-12 15:03:00,80.0,64.0,29.99,ENE,67,7.0,10.0,58,0.00,,,0.01,,2013-01-12 20:03:00,
2013-01-12 15:12:00,80.0,64.0,29.99,ENE,67,7.0,10.0,58,0.00,,,0.01,,2013-01-12 20:12:00,
2013-01-12 15:22:00,82.0,64.0,29.99,East,84,8.0,10.0,55,0.00,,,0.01,,2013-01-12 20:22:00,
2013-01-12 15:33:00,82.0,64.0,29.99,ESE,110,3.0,5.0,54,0.00,,,0.01,,2013-01-12 20:33:00,
2013-01-12 15:42:00,82.0,64.0,29.99,ESE,110,3.0,5.0,54,0.00,,,0.01,,2013-01-12 20:42:00,
2013-01-12 15:53:00,81.0,64.0,30.00,East,93,1.0,3.0,56,0.00,,,0.01,,2013-01-12 20:53:00,
2013-01-12 16:03:00,81.0,64.0,29.99,East,99,6.0,8.0,56,0.00,,,0.01,,2013-01-12 21:03:00,
2013-01-12 16:12:00,81.0,64.0,29.99,East,99,6.0,8.0,56,0.00,,,0.01,,2013-01-12 21:12:00,
2013-01-12 16:22:00,81.0,64.0,30.00,East,82,2.0,5.0,56,0.00,,,0.01,,2013-01-12 21:22:00,
2013-01-12 16:33:00,82.0,64.0,30.00,East,97,6.0,8.0,54,0.00,,,0.01,,2013-01-12 21:33:00,
2013-01-12 16:43:00,82.0,64.0,30.00,East,97,6.0,8.0,54,0.00,,,0.01,,2013-01-12 21:43:00,
2013-01-12 16:53:00,81.0,63.0,30.01,East,86,4.0,6.0,54,0.00,,,0.01,,2013-01-12 21:53:00,
2013-01-12 17:03:00,81.0,63.0,30.02,East,98,3.0,5.0,55,0.00,,,0.01,,2013-01-12 22:03:00,
2013-01-12 17:12:00,81.0,63.0,30.02,East,98,3.0,5.0,55,0.00,,,0.01,,2013-01-12 22:12:00,
2013-01-12 17:23:00,80.0,63.0,30.01,SE,126,0.0,0.0,57,0.00,,,0.01,,2013-01-12 22:23:00,
2013-01-12 17:33:00,78.0,63.0,30.02,ESE,123,0.0,0.0,60,0.00,,,0.01,,2013-01-12 22:33:00,
2013-01-12 17:43:00,78.0,63.0,30.02,ESE,123,0.0,0.0,60,0.00,,,0.01,,2013-01-12 22:43:00,
2013-01-12 17:53:00,78.0,64.0,30.02,ESE,123,0.0,0.0,62,0.00,,,0.01,,2013-01-12 22:53:00,
2013-01-12 18:03:00,77.0,63.0,30.02,West,279,0.0,0.0,63,0.00,,,0.01,,2013-01-12 23:03:00,
2013-01-12 18:13:00,77.0,63.0,30.02,West,279,0.0,0.0,63,0.00,,,0.01,,2013-01-12 23:13:00,
2013-01-12 18:23:00,77.0,65.0,30.02,West,275,0.0,0.0,67,0.00,,,0.01,,2013-01-12 23:23:00,
2013-01-12 18:33:00,76.0,65.0,30.02,West,281,0.0,2.0,69,0.00,,,0.01,,2013-01-12 23:33:00,
2013-01-12 18:43:00,76.0,65.0,30.02,West,281,0.0,2.0,69,0.00,,,0.01,,2013-01-12 23:43:00,
2013-01-12 18:53:00,75.0,65.0,30.03,WNW,292,0.0,0.0,71,0.00,,,0.01,,2013-01-12 23:53:00,
2013-01-12 19:03:00,74.0,65.0,30.03,WNW,292,0.0,0.0,74,0.00,,,0.01,,2013-01-13 00:03:00,
2013-01-12 19:12:00,74.0,65.0,30.03,WNW,292,0.0,0.0,74,0.00,,,0.01,,2013-01-13 00:12:00,
2013-01-12 19:23:00,73.0,65.0,30.03,WNW,292,0.0,0.0,75,0.00,,,0.01,,2013-01-13 00:23:00,
2013-01-12 19:33:00,73.0,65.0,30.03,WNW,292,0.0,0.0,77,0.00,,,0.01,,2013-01-13 00:33:00,
2013-01-12 19:43:00,73.0,65.0,30.03,WNW,292,0.0,0.0,77,0.00,,,0.01,,2013-01-13 00:43:00,
2013-01-12 19:53:00,72.0,65.0,30.03,WNW,292,0.0,0.0,78,0.00,,,0.01,,2013-01-13 00:53:00,
2013-01-12 20:03:00,71.0,64.0,30.03,WNW,292,0.0,0.0,79,0.00,,,0.01,,2013-01-13 01:03:00,
2013-01-12 20:12:00,71.0,64.0,30.03,WNW,292,0.0,0.0,79,0.00,,,0.01,,2013-01-13 01:12:00,
2013-01-12 20:23:00,70.0,64.0,30.03,WNW,292,0.0,0.0,80,0.00,,,0.01,,2013-01-13 01:23:00,
2013-01-12 20:33:00,70.0,64.0,30.02,WNW,292,0.0,0.0,81,0.00,,,0.01,,2013-01-13 01:33:00,
2013-01-12 20:43:00,70.0,64.0,30.02,WNW,292,0.0,0.0,81,0.00,,,0.01,,2013-01-13 01:43:00,
2013-01-12 20:53:00,69.0,63.0,30.02,WSW,246,0.0,0.0,82,0.00,,,0.01,,2013-01-13 01:53:00,
2013-01-12 21:02:00,69.0,64.0,30.02,WSW,246,0.0,0.0,84,0.00,,,0.01,,2013-01-13 02:02:00,
2013-01-12 21:13:00,69.0,64.0,30.02,WSW,246,0.0,0.0,84,0.00,,,0.01,,2013-01-13 02:13:00,
2013-01-12 21:23:00,69.0,64.0,30.01,WSW,246,0.0,0.0,85,0.00,,,0.01,,2013-01-13 02:23:00,
2013-01-12 21:33:00,69.0,65.0,30.01,WSW,246,0.0,0.0,86,0.00,,,0.01,,2013-01-13 02:33:00,
2013-01-12 21:43:00,69.0,65.0,30.01,WSW,246,0.0,0.0,86,0.00,,,0.01,,2013-01-13 02:43:00,
2013-01-12 21:53:00,68.0,64.0,30.01,WSW,246,0.0,0.0,86,0.00,,,0.01,,2013-01-13 02:53:00,
2013-01-12 22:02:00,68.0,64.0,30.01,WSW,246,0.0,0.0,87,0.00,,,0.01,,2013-01-13 03:02:00,
2013-01-12 22:12:00,68.0,64.0,30.01,WSW,246,0.0,0.0,87,0.00,,,0.01,,2013-01-13 03:12:00,
2013-01-12 22:22:00,68.0,64.0,30.01,South,189,0.0,0.0,87,0.00,,,0.01,,2013-01-13 03:22:00,
2013-01-12 22:33:00,68.0,64.0,30.01,SE,125,0.0,2.0,88,0.00,,,0.01,,2013-01-13 03:33:00,
2013-01-12 22:43:00,68.0,64.0,30.01,SE,125,0.0,2.0,88,0.00,,,0.01,,2013-01-13 03:43:00,
2013-01-12 22:53:00,68.0,64.0,30.01,East,88,1.0,2.0,88,0.00,,,0.01,,2013-01-13 03:53:00,
2013-01-12 23:02:00,68.0,64.0,30.01,East,90,1.0,3.0,87,0.00,,,0.01,,2013-01-13 04:02:00,
2013-01-12 23:12:00,68.0,64.0,30.01,East,90,1.0,3.0,87,0.00,,,0.01,,2013-01-13 04:12:00,
2013-01-12 23:22:00,68.0,64.0,30.02,ESE,103,2.0,3.0,86,0.00,,,0.01,,2013-01-13 04:22:00,
2013-01-12 23:33:00,68.0,63.0,30.02,SE,126,1.0,3.0,85,0.00,,,0.01,,2013-01-13 04:33:00,
2013-01-12 23:43:00,68.0,63.0,30.02,SE,126,1.0,3.0,85,0.00,,,0.01,,2013-01-13 04:43:00,
2013-01-12 23:53:00,69.0,64.0,30.02,South,184,0.0,1.0,83,0.00,,,0.01,,2013-01-13 04:53:00,